<?xml version="1.0" encoding="UTF-8" ?>
<gpx version="1.1" xmlns:xsi="http://www.w3.org/2001/XMLSchema-instance" 
    xmlns="http://www.topografix.com/GPX/1/1" 
    xsi:schemaLocation="http://www.topografix.com/GPX/1/1 http://www.topografix.com/GPX/1/1/gpx.xsd" 
    creator="Openrunner - https://www.openrunner.com" >	<trk>
						<name>15737645-Circuit de l'aqueduc Montromant</name>
						<trkseg>
					<trkpt lat="45.708630" lon="4.524530">
						<ele>537</ele>
						<time>2022-10-24T12:20:56Z</time>
					</trkpt>
					<trkpt lat="45.708620" lon="4.524570">
						<ele>537</ele>
						<time>2022-10-24T12:20:57Z</time>
					</trkpt>
					<trkpt lat="45.708360" lon="4.524400">
						<ele>540</ele>
						<time>2022-10-24T12:21:12Z</time>
					</trkpt>
					<trkpt lat="45.708090" lon="4.524290">
						<ele>539</ele>
						<time>2022-10-24T12:21:26Z</time>
					</trkpt>
					<trkpt lat="45.708050" lon="4.524270">
						<ele>539</ele>
						<time>2022-10-24T12:21:28Z</time>
					</trkpt>
					<trkpt lat="45.707940" lon="4.524230">
						<ele>538</ele>
						<time>2022-10-24T12:21:34Z</time>
					</trkpt>
					<trkpt lat="45.707490" lon="4.523840">
						<ele>530</ele>
						<time>2022-10-24T12:22:00Z</time>
					</trkpt>
					<trkpt lat="45.707360" lon="4.523760">
						<ele>528</ele>
						<time>2022-10-24T12:22:07Z</time>
					</trkpt>
					<trkpt lat="45.707130" lon="4.523620">
						<ele>525</ele>
						<time>2022-10-24T12:22:20Z</time>
					</trkpt>
					<trkpt lat="45.706900" lon="4.523510">
						<ele>522</ele>
						<time>2022-10-24T12:22:32Z</time>
					</trkpt>
					<trkpt lat="45.706560" lon="4.523490">
						<ele>521</ele>
						<time>2022-10-24T12:22:49Z</time>
					</trkpt>
					<trkpt lat="45.706500" lon="4.523490">
						<ele>521</ele>
						<time>2022-10-24T12:22:52Z</time>
					</trkpt>
					<trkpt lat="45.706330" lon="4.523540">
						<ele>522</ele>
						<time>2022-10-24T12:23:00Z</time>
					</trkpt>
					<trkpt lat="45.706040" lon="4.523670">
						<ele>525</ele>
						<time>2022-10-24T12:23:16Z</time>
					</trkpt>
					<trkpt lat="45.705680" lon="4.523840">
						<ele>528</ele>
						<time>2022-10-24T12:23:35Z</time>
					</trkpt>
					<trkpt lat="45.705600" lon="4.523870">
						<ele>529</ele>
						<time>2022-10-24T12:23:39Z</time>
					</trkpt>
					<trkpt lat="45.705540" lon="4.523850">
						<ele>530</ele>
						<time>2022-10-24T12:23:42Z</time>
					</trkpt>
					<trkpt lat="45.705510" lon="4.523810">
						<ele>530</ele>
						<time>2022-10-24T12:23:44Z</time>
					</trkpt>
					<trkpt lat="45.705500" lon="4.523790">
						<ele>530</ele>
						<time>2022-10-24T12:23:45Z</time>
					</trkpt>
					<trkpt lat="45.705460" lon="4.523650">
						<ele>530</ele>
						<time>2022-10-24T12:23:50Z</time>
					</trkpt>
					<trkpt lat="45.705260" lon="4.523680">
						<ele>534</ele>
						<time>2022-10-24T12:24:00Z</time>
					</trkpt>
					<trkpt lat="45.704810" lon="4.523660">
						<ele>543</ele>
						<time>2022-10-24T12:24:23Z</time>
					</trkpt>
					<trkpt lat="45.704400" lon="4.523560">
						<ele>554</ele>
						<time>2022-10-24T12:24:43Z</time>
					</trkpt>
					<trkpt lat="45.703930" lon="4.522960">
						<ele>570</ele>
						<time>2022-10-24T12:25:15Z</time>
					</trkpt>
					<trkpt lat="45.703350" lon="4.522460">
						<ele>582</ele>
						<time>2022-10-24T12:25:49Z</time>
					</trkpt>
					<trkpt lat="45.702690" lon="4.521720">
						<ele>604</ele>
						<time>2022-10-24T12:26:31Z</time>
					</trkpt>
					<trkpt lat="45.702190" lon="4.521330">
						<ele>619</ele>
						<time>2022-10-24T12:26:59Z</time>
					</trkpt>
					<trkpt lat="45.701530" lon="4.521260">
						<ele>639</ele>
						<time>2022-10-24T12:27:32Z</time>
					</trkpt>
					<trkpt lat="45.702020" lon="4.521910">
						<ele>628</ele>
						<time>2022-10-24T12:28:06Z</time>
					</trkpt>
					<trkpt lat="45.702460" lon="4.522820">
						<ele>624</ele>
						<time>2022-10-24T12:28:44Z</time>
					</trkpt>
					<trkpt lat="45.702770" lon="4.524480">
						<ele>621</ele>
						<time>2022-10-24T12:29:45Z</time>
					</trkpt>
					<trkpt lat="45.702490" lon="4.525130">
						<ele>621</ele>
						<time>2022-10-24T12:30:11Z</time>
					</trkpt>
					<trkpt lat="45.701700" lon="4.526110">
						<ele>611</ele>
						<time>2022-10-24T12:31:04Z</time>
					</trkpt>
					<trkpt lat="45.701290" lon="4.526760">
						<ele>605</ele>
						<time>2022-10-24T12:31:34Z</time>
					</trkpt>
					<trkpt lat="45.701210" lon="4.527590">
						<ele>601</ele>
						<time>2022-10-24T12:32:03Z</time>
					</trkpt>
					<trkpt lat="45.702390" lon="4.526990">
						<ele>584</ele>
						<time>2022-10-24T12:33:06Z</time>
					</trkpt>
					<trkpt lat="45.703220" lon="4.527080">
						<ele>572</ele>
						<time>2022-10-24T12:33:48Z</time>
					</trkpt>
					<trkpt lat="45.704200" lon="4.526340">
						<ele>560</ele>
						<time>2022-10-24T12:34:43Z</time>
					</trkpt>
					<trkpt lat="45.705410" lon="4.525860">
						<ele>563</ele>
						<time>2022-10-24T12:35:46Z</time>
					</trkpt>
					<trkpt lat="45.705420" lon="4.525810">
						<ele>563</ele>
						<time>2022-10-24T12:35:48Z</time>
					</trkpt>
					<trkpt lat="45.705600" lon="4.525320">
						<ele>557</ele>
						<time>2022-10-24T12:36:07Z</time>
					</trkpt>
					<trkpt lat="45.705780" lon="4.524960">
						<ele>553</ele>
						<time>2022-10-24T12:36:23Z</time>
					</trkpt>
					<trkpt lat="45.705930" lon="4.524830">
						<ele>551</ele>
						<time>2022-10-24T12:36:31Z</time>
					</trkpt>
					<trkpt lat="45.706070" lon="4.524800">
						<ele>551</ele>
						<time>2022-10-24T12:36:38Z</time>
					</trkpt>
					<trkpt lat="45.706400" lon="4.524850">
						<ele>555</ele>
						<time>2022-10-24T12:36:55Z</time>
					</trkpt>
					<trkpt lat="45.706630" lon="4.524880">
						<ele>557</ele>
						<time>2022-10-24T12:37:07Z</time>
					</trkpt>
					<trkpt lat="45.707080" lon="4.524960">
						<ele>556</ele>
						<time>2022-10-24T12:37:29Z</time>
					</trkpt>
					<trkpt lat="45.707260" lon="4.525080">
						<ele>557</ele>
						<time>2022-10-24T12:37:39Z</time>
					</trkpt>
					<trkpt lat="45.707280" lon="4.525000">
						<ele>555</ele>
						<time>2022-10-24T12:37:42Z</time>
					</trkpt>
					<trkpt lat="45.707270" lon="4.525000">
						<ele>555</ele>
						<time>2022-10-24T12:37:43Z</time>
					</trkpt>
					<trkpt lat="45.707280" lon="4.525000">
						<ele>555</ele>
						<time>2022-10-24T12:37:43Z</time>
					</trkpt>
					<trkpt lat="45.707580" lon="4.525130">
						<ele>554</ele>
						<time>2022-10-24T12:37:59Z</time>
					</trkpt>
					<trkpt lat="45.707860" lon="4.525370">
						<ele>552</ele>
						<time>2022-10-24T12:38:15Z</time>
					</trkpt>
					<trkpt lat="45.708120" lon="4.525630">
						<ele>550</ele>
						<time>2022-10-24T12:38:31Z</time>
					</trkpt>
					<trkpt lat="45.708190" lon="4.525760">
						<ele>549</ele>
						<time>2022-10-24T12:38:37Z</time>
					</trkpt>
					<trkpt lat="45.708210" lon="4.525730">
						<ele>549</ele>
						<time>2022-10-24T12:38:38Z</time>
					</trkpt>
					<trkpt lat="45.708370" lon="4.525480">
						<ele>545</ele>
						<time>2022-10-24T12:38:50Z</time>
					</trkpt>
					<trkpt lat="45.708510" lon="4.525170">
						<ele>541</ele>
						<time>2022-10-24T12:39:03Z</time>
					</trkpt>
					<trkpt lat="45.708600" lon="4.524650">
						<ele>538</ele>
						<time>2022-10-24T12:39:22Z</time>
					</trkpt>
					</trkseg>
				</trk>
			</gpx>